Capewater — PBPQ — position and weather

sailwx.info

Track history (hours):
 
Tides and Currents Weather Stations Pressure Air Temp Water Temp Dewpoint Dewpoint Depression Visibility Wind Speed Wind Dir Waves Ship Positions

Capewater

Last reported at 2015-May-04 01:32 UTC. Time now 2015-May-04 02:00 UTC.
Position N 51°53' E 004°18'.

Length 100 m; draft 6.5 m.

Type: Tanker. MMSI: 246346000.

Date/timePositionNaut miles runAvg speedWind from/ knotsBaromVisibWave heightAir tempDewpointWater temp
2015-May-04 01:32N 51°53' E 004°18'0 0.0
2015-May-04 00:26N 51°53' E 004°18'0 0.0
2015-May-03 23:29N 51°53' E 004°18'0 0.0
2015-May-03 22:29N 51°53' E 004°18'0 0.0
2015-May-03 21:29N 51°53' E 004°18'0 0.0
2015-May-03 20:29N 51°53' E 004°18'0 0.0
2015-May-03 19:29N 51°53' E 004°18'0 0.0
2015-May-03 18:29N 51°53' E 004°18'0 0.0
2015-May-03 17:32N 51°53' E 004°18'0 0.0
2015-May-03 16:23N 51°53' E 004°18'0 0.0
2015-May-03 15:32N 51°53' E 004°18'0 0.0
2015-May-03 14:32N 51°53' E 004°18'0 0.0
2015-May-03 13:34N 51°53' E 004°18'6 6.3
2015-May-03 12:33N 51°57' E 004°10'1312.5
2015-May-03 11:34N 52°00' E 003°51'6 5.4
2015-May-03 10:32N 51°56' E 003°44'0 0.0
2015-May-03 09:31N 51°56' E 003°44'0 0.0
2015-May-03 08:31N 51°56' E 003°44'0 0.0
2015-May-03 07:31N 51°56' E 003°44'0 0.0
2015-May-03 06:32N 51°56' E 003°44'0 0.0
2015-May-03 05:28N 51°56' E 003°44'0 0.1
2015-May-03 04:32N 51°56' E 003°45'0 0.0
2015-May-03 03:31N 51°56' E 003°45'0 0.0
2015-May-03 02:31N 51°56' E 003°45'0 0.0
2015-May-03 01:23N 51°56' E 003°45'0 0.0
2015-May-03 00:31N 51°56' E 003°45'0 0.1
2015-May-02 23:31N 51°56' E 003°44'0 0.1
2015-May-02 22:31N 51°56' E 003°44'0 0.0
2015-May-02 21:25N 51°56' E 003°44'0 0.0
2015-May-02 20:28N 51°56' E 003°44'0 0.0
2015-May-02 19:28N 51°56' E 003°44'0 0.0
2015-May-02 18:31N 51°56' E 003°44'0 0.0
2015-May-02 17:31N 51°56' E 003°44'0 0.0
2015-May-02 16:31N 51°56' E 003°44'0 0.1
2015-May-02 15:31N 51°56' E 003°45'0 0.0
2015-May-02 14:31N 51°56' E 003°45'0 0.0
2015-May-02 13:28N 51°56' E 003°45'0 0.0
2015-May-02 12:31N 51°56' E 003°45'1 1.5
2015-May-02 11:32N 51°56' E 003°42'1211.3
2015-May-02 10:31N 51°55' E 003°24'1313.0
2015-May-02 09:33N 51°52' E 003°04'2511.8
2015-May-02 07:27N 51°40' E 002°29'1011.6
2015-May-02 06:33N 51°32' E 002°18'1111.5
2015-May-02 05:34N 51°21' E 002°11'1111.4
2015-May-02 04:34N 51°12' E 001°60'1212.0
2015-May-02 03:33N 51°06' E 001°44'1312.6
2015-May-02 02:33N 50°56' E 001°31'8811.0
2015-May-01 18:32N 49°53' W 000°07'1212.1
2015-May-01 17:33N 49°42' W 000°09'1312.7
2015-May-01 16:33N 49°31' E 000°01'7 6.7
2015-May-01 15:33N 49°29' E 000°10'3 2.3
2015-May-01 14:29N 49°28' E 000°14'0 0.0
2015-May-01 13:32N 49°28' E 000°14'0 0.0
2015-May-01 12:32N 49°28' E 000°14'0 0.0
2015-May-01 11:32N 49°28' E 000°14'0 0.0
2015-May-01 10:32N 49°28' E 000°14'0 0.0
2015-May-01 09:32N 49°28' E 000°14'0 0.0
2015-May-01 08:32N 49°28' E 000°14'0 0.0
2015-May-01 07:32N 49°28' E 000°14'0 0.0
2015-May-01 06:32N 49°28' E 000°14'0 0.0
2015-May-01 05:29N 49°28' E 000°14'0 0.0
2015-May-01 04:32N 49°28' E 000°14'0 0.0
2015-May-01 03:32N 49°28' E 000°14'0 0.0
2015-May-01 02:32N 49°28' E 000°14'0 0.0
2015-May-01 01:29N 49°28' E 000°14'3 2.8
2015-May-01 00:34N 49°29' E 000°10'4 3.7
2015-Apr-30 23:34N 49°29' E 000°05'9 9.5
2015-Apr-30 22:34N 49°34' W 000°08'0 0.1
2015-Apr-30 21:32N 49°34' W 000°08'0 0.0
2015-Apr-30 20:31N 49°34' W 000°08'0 0.0
2015-Apr-30 19:32N 49°34' W 000°08'0 0.0
2015-Apr-30 18:33N 49°34' W 000°08'0 0.0
2015-Apr-30 17:33N 49°34' W 000°08'0 0.0
2015-Apr-30 16:33N 49°34' W 000°08'1 1.4
2015-Apr-30 15:33N 49°33' W 000°10'10 9.6
2015-Apr-30 14:33N 49°35' W 000°24'1313.4
2015-Apr-30 13:33N 49°49' W 000°20'5012.3
2015-Apr-30 09:28N 50°33' E 000°17'1112.3
2015-Apr-30 08:33N 50°37' E 000°33'1211.7
2015-Apr-30 07:33N 50°44' E 000°48'1211.6
2015-Apr-30 06:33N 50°51' E 001°03'1312.7
2015-Apr-30 05:33N 50°59' E 001°18'1413.9
2015-Apr-30 04:33N 51°08' E 001°35'1413.7
2015-Apr-30 03:34N 51°18' E 001°50'1312.9
2015-Apr-30 02:33N 51°28' E 002°02'1211.9
2015-Apr-30 01:33N 51°38' E 002°14'1111.4
2015-Apr-30 00:33N 51°46' E 002°26'1111.1
2015-Apr-29 23:33N 51°55' E 002°37'11811.7
2015-Apr-29 13:31N 53°27' E 004°38'10 9.9
2015-Apr-29 12:33N 53°32' E 004°52'1111.2
2015-Apr-29 11:33N 53°36' E 005°09'1212.1
2015-Apr-29 10:33N 53°39' E 005°29'1312.4
2015-Apr-29 09:33N 53°43' E 005°49'5012.2
2015-Apr-29 05:29N 53°57' E 007°10'7 7.8
2015-Apr-29 04:33N 53°58' E 007°22'1110.6
2015-Apr-29 03:33N 54°01' E 007°39'1111.3
2015-Apr-29 02:33N 54°01' E 007°59'1111.1
2015-Apr-29 01:33N 54°00' E 008°17'1514.6
2015-Apr-29 00:33N 53°55' E 008°41'1413.6
2015-Apr-28 23:33N 53°52' E 009°03'4 3.7
2015-Apr-28 22:33N 53°54' E 009°09'1 1.1
2015-Apr-28 21:30N 53°55' E 009°10'0 0.0
2015-Apr-28 20:33N 53°55' E 009°10'0 0.0
2015-Apr-28 19:33N 53°55' E 009°10'0 0.0
2015-Apr-28 18:33N 53°55' E 009°10'0 0.0
2015-Apr-28 17:34N 53°55' E 009°10'0 0.0
2015-Apr-28 16:33N 53°55' E 009°10'0 0.0
2015-Apr-28 15:33N 53°55' E 009°10'0 0.0
2015-Apr-28 14:33N 53°55' E 009°10'0 0.0
2015-Apr-28 13:33N 53°55' E 009°10'0 0.0
2015-Apr-28 12:34N 53°55' E 009°10'0 0.0
2015-Apr-28 11:33N 53°55' E 009°10'0 0.0
2015-Apr-28 10:33N 53°55' E 009°10'0 0.0
2015-Apr-28 09:33N 53°55' E 009°10'0 0.0
2015-Apr-28 08:34N 53°55' E 009°10'0 0.0
2015-Apr-28 07:33N 53°55' E 009°10'0 0.0
2015-Apr-28 06:34N 53°55' E 009°10'0 0.0
2015-Apr-28 05:33N 53°55' E 009°10'0 0.0
2015-Apr-28 04:33N 53°55' E 009°10'0 0.0
2015-Apr-28 03:33N 53°55' E 009°10'0 0.0
2015-Apr-28 02:33N 53°55' E 009°10'0 0.0
2015-Apr-28 01:34N 53°55' E 009°10'0 0.0
2015-Apr-28 00:33N 53°55' E 009°10'0 0.0
2015-Apr-27 23:33N 53°55' E 009°10'0 0.0
2015-Apr-27 22:34N 53°55' E 009°10'0 0.0
2015-Apr-27 21:33N 53°55' E 009°10'0 0.0
2015-Apr-27 20:34N 53°55' E 009°10'0 0.0
2015-Apr-27 19:34N 53°55' E 009°10'0 0.0
2015-Apr-27 18:34N 53°55' E 009°10'0 0.0
2015-Apr-27 17:33N 53°55' E 009°10'0 0.0
2015-Apr-27 16:34N 53°55' E 009°10'0 0.0
2015-Apr-27 15:33N 53°55' E 009°10'1 1.1
2015-Apr-27 14:34N 53°54' E 009°09'1 0.8
2015-Apr-27 13:33N 53°53' E 009°08'3 3.4
2015-Apr-27 12:34N 53°52' E 009°03'1010.4
2015-Apr-27 11:33N 53°51' E 008°45'1110.5
2015-Apr-27 10:33N 53°58' E 008°32'1212.1
2015-Apr-27 09:33N 53°59' E 008°11'9 9.2
2015-Apr-27 08:33N 53°58' E 007°56'1010.0
2015-Apr-27 07:33N 53°56' E 007°39'1010.4
2015-Apr-27 06:33N 53°53' E 007°22'3411.1
2015-Apr-27 03:29N 53°45' E 006°26'1314.0
2015-Apr-27 02:33N 53°41' E 006°05'1514.8
2015-Apr-27 01:33N 53°37' E 005°41'1514.8
2015-Apr-27 00:34N 53°32' E 005°18'1514.9
2015-Apr-26 23:34N 53°27' E 004°54'1514.1
2015-Apr-26 22:30N 53°16' E 004°37'1414.5
2015-Apr-26 21:33N 53°04' E 004°26'11512.7
2015-Apr-26 12:33N 51°37' E 002°25'1212.3
2015-Apr-26 11:33N 51°26' E 002°14'1312.7
2015-Apr-26 10:33N 51°15' E 002°05'1313.1
2015-Apr-26 09:34N 51°07' E 001°48'1413.9
2015-Apr-26 08:33N 50°57' E 001°33'8213.1
2015-Apr-26 02:19N 49°56' E 000°08'1215.7
2015-Apr-26 01:34N 49°45' W 000°01'1313.4
2015-Apr-26 00:34N 49°32' W 000°00'8 7.7
2015-Apr-25 23:33N 49°29' E 000°10'1 1.3
2015-Apr-25 22:32N 49°29' E 000°12'0 0.0
2015-Apr-25 21:32N 49°29' E 000°12'0 0.0
2015-Apr-25 20:32N 49°29' E 000°12'0 0.0
2015-Apr-25 19:32N 49°29' E 000°12'0 0.0
2015-Apr-25 18:32N 49°29' E 000°12'0 0.0
2015-Apr-25 17:32N 49°29' E 000°12'0 0.0
2015-Apr-25 16:29N 49°29' E 000°12'0 0.0
2015-Apr-25 15:32N 49°29' E 000°12'0 0.0
2015-Apr-25 14:32N 49°29' E 000°12'0 0.0
2015-Apr-25 13:32N 49°29' E 000°12'0 0.0
2015-Apr-25 12:29N 49°29' E 000°12'0 0.0
2015-Apr-25 11:32N 49°29' E 000°12'0 0.0
2015-Apr-25 10:29N 49°29' E 000°12'0 0.0
2015-Apr-25 09:32N 49°29' E 000°12'0 0.0
2015-Apr-25 08:32N 49°29' E 000°12'0 0.0
2015-Apr-25 07:32N 49°29' E 000°12'0 0.0
2015-Apr-25 06:32N 49°29' E 000°12'0 0.0
2015-Apr-25 05:32N 49°29' E 000°12'0 0.0
2015-Apr-25 04:32N 49°29' E 000°12'0 0.0
2015-Apr-25 03:32N 49°29' E 000°12'0 0.0
2015-Apr-25 02:32N 49°29' E 000°12'0 0.0
2015-Apr-25 01:33N 49°29' E 000°12'1 1.3
2015-Apr-25 00:34N 49°29' E 000°10'8 7.8
2015-Apr-24 23:34N 49°30' W 000°01'6 5.5
2015-Apr-24 22:32N 49°33' W 000°09'0 0.1
2015-Apr-24 21:32N 49°33' W 000°09'0 0.0
2015-Apr-24 20:32N 49°33' W 000°09'0 0.0
2015-Apr-24 19:32N 49°33' W 000°09'0 0.0
2015-Apr-24 18:32N 49°33' W 000°09'0 0.0
2015-Apr-24 17:32N 49°33' W 000°09'0 0.0
2015-Apr-24 16:32N 49°33' W 000°09'0 0.1
2015-Apr-24 15:32N 49°33' W 000°09'0 0.0
2015-Apr-24 14:32N 49°33' W 000°09'0 0.0
2015-Apr-24 13:32N 49°33' W 000°09'0 0.0
2015-Apr-24 12:32N 49°33' W 000°09'0 0.0
2015-Apr-24 11:32N 49°33' W 000°09'0 0.0
2015-Apr-24 10:32N 49°33' W 000°09'0 0.0
2015-Apr-24 09:32N 49°33' W 000°09'0 0.0
2015-Apr-24 08:32N 49°33' W 000°09'0 0.0
2015-Apr-24 07:32N 49°33' W 000°09'0 0.0
2015-Apr-24 06:32N 49°33' W 000°09'0 0.0
2015-Apr-24 05:32N 49°33' W 000°09'0 0.0
2015-Apr-24 04:20N 49°33' W 000°09'0 0.1
2015-Apr-24 03:32N 49°33' W 000°09'0 0.1
2015-Apr-24 02:26N 49°33' W 000°09'  
Track history (hours):
 
Tides and Currents Weather Stations Pressure Air Temp Water Temp Dewpoint Dewpoint Depression Visibility Wind Speed Wind Dir Waves Ship Positions

Capewater

Last reported at 2015-May-04 01:32 UTC. Time now 2015-May-04 02:00 UTC.
Position N 51°53' E 004°18'.

Length 100 m; draft 6.5 m.

Type: Tanker. MMSI: 246346000.

Date/timePositionNaut miles runAvg speedWind from/ knotsBaromVisibWave heightAir tempDewpointWater temp
2015-May-04 01:32N 51°53' E 004°18'0 0.0
2015-May-04 00:26N 51°53' E 004°18'0 0.0
2015-May-03 23:29N 51°53' E 004°18'0 0.0
2015-May-03 22:29N 51°53' E 004°18'0 0.0
2015-May-03 21:29N 51°53' E 004°18'0 0.0
2015-May-03 20:29N 51°53' E 004°18'0 0.0
2015-May-03 19:29N 51°53' E 004°18'0 0.0
2015-May-03 18:29N 51°53' E 004°18'0 0.0
2015-May-03 17:32N 51°53' E 004°18'0 0.0
2015-May-03 16:23N 51°53' E 004°18'0 0.0
2015-May-03 15:32N 51°53' E 004°18'0 0.0
2015-May-03 14:32N 51°53' E 004°18'0 0.0
2015-May-03 13:34N 51°53' E 004°18'6 6.3
2015-May-03 12:33N 51°57' E 004°10'1312.5
2015-May-03 11:34N 52°00' E 003°51'6 5.4
2015-May-03 10:32N 51°56' E 003°44'0 0.0
2015-May-03 09:31N 51°56' E 003°44'0 0.0
2015-May-03 08:31N 51°56' E 003°44'0 0.0
2015-May-03 07:31N 51°56' E 003°44'0 0.0
2015-May-03 06:32N 51°56' E 003°44'0 0.0
2015-May-03 05:28N 51°56' E 003°44'0 0.1
2015-May-03 04:32N 51°56' E 003°45'0 0.0
2015-May-03 03:31N 51°56' E 003°45'0 0.0
2015-May-03 02:31N 51°56' E 003°45'0 0.0
2015-May-03 01:23N 51°56' E 003°45'0 0.0
2015-May-03 00:31N 51°56' E 003°45'0 0.1
2015-May-02 23:31N 51°56' E 003°44'0 0.1
2015-May-02 22:31N 51°56' E 003°44'0 0.0
2015-May-02 21:25N 51°56' E 003°44'0 0.0
2015-May-02 20:28N 51°56' E 003°44'0 0.0
2015-May-02 19:28N 51°56' E 003°44'0 0.0
2015-May-02 18:31N 51°56' E 003°44'0 0.0
2015-May-02 17:31N 51°56' E 003°44'0 0.0
2015-May-02 16:31N 51°56' E 003°44'0 0.1
2015-May-02 15:31N 51°56' E 003°45'0 0.0
2015-May-02 14:31N 51°56' E 003°45'0 0.0
2015-May-02 13:28N 51°56' E 003°45'0 0.0
2015-May-02 12:31N 51°56' E 003°45'1 1.5
2015-May-02 11:32N 51°56' E 003°42'1211.3
2015-May-02 10:31N 51°55' E 003°24'1313.0
2015-May-02 09:33N 51°52' E 003°04'2511.8
2015-May-02 07:27N 51°40' E 002°29'1011.6
2015-May-02 06:33N 51°32' E 002°18'1111.5
2015-May-02 05:34N 51°21' E 002°11'1111.4
2015-May-02 04:34N 51°12' E 001°60'1212.0
2015-May-02 03:33N 51°06' E 001°44'1312.6
2015-May-02 02:33N 50°56' E 001°31'8811.0
2015-May-01 18:32N 49°53' W 000°07'1212.1
2015-May-01 17:33N 49°42' W 000°09'1312.7
2015-May-01 16:33N 49°31' E 000°01'7 6.7
2015-May-01 15:33N 49°29' E 000°10'3 2.3
2015-May-01 14:29N 49°28' E 000°14'0 0.0
2015-May-01 13:32N 49°28' E 000°14'0 0.0
2015-May-01 12:32N 49°28' E 000°14'0 0.0
2015-May-01 11:32N 49°28' E 000°14'0 0.0
2015-May-01 10:32N 49°28' E 000°14'0 0.0
2015-May-01 09:32N 49°28' E 000°14'0 0.0
2015-May-01 08:32N 49°28' E 000°14'0 0.0
2015-May-01 07:32N 49°28' E 000°14'0 0.0
2015-May-01 06:32N 49°28' E 000°14'0 0.0
2015-May-01 05:29N 49°28' E 000°14'0 0.0
2015-May-01 04:32N 49°28' E 000°14'0 0.0
2015-May-01 03:32N 49°28' E 000°14'0 0.0
2015-May-01 02:32N 49°28' E 000°14'0 0.0
2015-May-01 01:29N 49°28' E 000°14'3 2.8
2015-May-01 00:34N 49°29' E 000°10'4 3.7
2015-Apr-30 23:34N 49°29' E 000°05'9 9.5
2015-Apr-30 22:34N 49°34' W 000°08'0 0.1
2015-Apr-30 21:32N 49°34' W 000°08'0 0.0
2015-Apr-30 20:31N 49°34' W 000°08'0 0.0
2015-Apr-30 19:32N 49°34' W 000°08'0 0.0
2015-Apr-30 18:33N 49°34' W 000°08'0 0.0
2015-Apr-30 17:33N 49°34' W 000°08'0 0.0
2015-Apr-30 16:33N 49°34' W 000°08'1 1.4
2015-Apr-30 15:33N 49°33' W 000°10'10 9.6
2015-Apr-30 14:33N 49°35' W 000°24'1313.4
2015-Apr-30 13:33N 49°49' W 000°20'5012.3
2015-Apr-30 09:28N 50°33' E 000°17'1112.3
2015-Apr-30 08:33N 50°37' E 000°33'1211.7
2015-Apr-30 07:33N 50°44' E 000°48'1211.6
2015-Apr-30 06:33N 50°51' E 001°03'1312.7
2015-Apr-30 05:33N 50°59' E 001°18'1413.9
2015-Apr-30 04:33N 51°08' E 001°35'1413.7
2015-Apr-30 03:34N 51°18' E 001°50'1312.9
2015-Apr-30 02:33N 51°28' E 002°02'1211.9
2015-Apr-30 01:33N 51°38' E 002°14'1111.4
2015-Apr-30 00:33N 51°46' E 002°26'1111.1
2015-Apr-29 23:33N 51°55' E 002°37'11811.7
2015-Apr-29 13:31N 53°27' E 004°38'10 9.9
2015-Apr-29 12:33N 53°32' E 004°52'1111.2
2015-Apr-29 11:33N 53°36' E 005°09'1212.1
2015-Apr-29 10:33N 53°39' E 005°29'1312.4
2015-Apr-29 09:33N 53°43' E 005°49'5012.2
2015-Apr-29 05:29N 53°57' E 007°10'7 7.8
2015-Apr-29 04:33N 53°58' E 007°22'1110.6
2015-Apr-29 03:33N 54°01' E 007°39'1111.3
2015-Apr-29 02:33N 54°01' E 007°59'1111.1
2015-Apr-29 01:33N 54°00' E 008°17'1514.6
2015-Apr-29 00:33N 53°55' E 008°41'1413.6
2015-Apr-28 23:33N 53°52' E 009°03'4 3.7
2015-Apr-28 22:33N 53°54' E 009°09'1 1.1
2015-Apr-28 21:30N 53°55' E 009°10'0 0.0
2015-Apr-28 20:33N 53°55' E 009°10'0 0.0
2015-Apr-28 19:33N 53°55' E 009°10'0 0.0
2015-Apr-28 18:33N 53°55' E 009°10'0 0.0
2015-Apr-28 17:34N 53°55' E 009°10'0 0.0
2015-Apr-28 16:33N 53°55' E 009°10'0 0.0
2015-Apr-28 15:33N 53°55' E 009°10'0 0.0
2015-Apr-28 14:33N 53°55' E 009°10'0 0.0
2015-Apr-28 13:33N 53°55' E 009°10'0 0.0
2015-Apr-28 12:34N 53°55' E 009°10'0 0.0
2015-Apr-28 11:33N 53°55' E 009°10'0 0.0
2015-Apr-28 10:33N 53°55' E 009°10'0 0.0
2015-Apr-28 09:33N 53°55' E 009°10'0 0.0
2015-Apr-28 08:34N 53°55' E 009°10'0 0.0
2015-Apr-28 07:33N 53°55' E 009°10'0 0.0
2015-Apr-28 06:34N 53°55' E 009°10'0 0.0
2015-Apr-28 05:33N 53°55' E 009°10'0 0.0
2015-Apr-28 04:33N 53°55' E 009°10'0 0.0
2015-Apr-28 03:33N 53°55' E 009°10'0 0.0
2015-Apr-28 02:33N 53°55' E 009°10'0 0.0
2015-Apr-28 01:34N 53°55' E 009°10'0 0.0
2015-Apr-28 00:33N 53°55' E 009°10'0 0.0
2015-Apr-27 23:33N 53°55' E 009°10'0 0.0
2015-Apr-27 22:34N 53°55' E 009°10'0 0.0
2015-Apr-27 21:33N 53°55' E 009°10'0 0.0
2015-Apr-27 20:34N 53°55' E 009°10'0 0.0
2015-Apr-27 19:34N 53°55' E 009°10'0 0.0
2015-Apr-27 18:34N 53°55' E 009°10'0 0.0
2015-Apr-27 17:33N 53°55' E 009°10'0 0.0
2015-Apr-27 16:34N 53°55' E 009°10'0 0.0
2015-Apr-27 15:33N 53°55' E 009°10'1 1.1
2015-Apr-27 14:34N 53°54' E 009°09'1 0.8
2015-Apr-27 13:33N 53°53' E 009°08'3 3.4
2015-Apr-27 12:34N 53°52' E 009°03'1010.4
2015-Apr-27 11:33N 53°51' E 008°45'1110.5
2015-Apr-27 10:33N 53°58' E 008°32'1212.1
2015-Apr-27 09:33N 53°59' E 008°11'9 9.2
2015-Apr-27 08:33N 53°58' E 007°56'1010.0
2015-Apr-27 07:33N 53°56' E 007°39'1010.4
2015-Apr-27 06:33N 53°53' E 007°22'3411.1
2015-Apr-27 03:29N 53°45' E 006°26'1314.0
2015-Apr-27 02:33N 53°41' E 006°05'1514.8
2015-Apr-27 01:33N 53°37' E 005°41'1514.8
2015-Apr-27 00:34N 53°32' E 005°18'1514.9
2015-Apr-26 23:34N 53°27' E 004°54'1514.1
2015-Apr-26 22:30N 53°16' E 004°37'1414.5
2015-Apr-26 21:33N 53°04' E 004°26'11512.7
2015-Apr-26 12:33N 51°37' E 002°25'1212.3
2015-Apr-26 11:33N 51°26' E 002°14'1312.7
2015-Apr-26 10:33N 51°15' E 002°05'1313.1
2015-Apr-26 09:34N 51°07' E 001°48'1413.9
2015-Apr-26 08:33N 50°57' E 001°33'8213.1
2015-Apr-26 02:19N 49°56' E 000°08'1215.7
2015-Apr-26 01:34N 49°45' W 000°01'1313.4
2015-Apr-26 00:34N 49°32' W 000°00'8 7.7
2015-Apr-25 23:33N 49°29' E 000°10'1 1.3
2015-Apr-25 22:32N 49°29' E 000°12'0 0.0
2015-Apr-25 21:32N 49°29' E 000°12'0 0.0
2015-Apr-25 20:32N 49°29' E 000°12'0 0.0
2015-Apr-25 19:32N 49°29' E 000°12'0 0.0
2015-Apr-25 18:32N 49°29' E 000°12'0 0.0
2015-Apr-25 17:32N 49°29' E 000°12'0 0.0
2015-Apr-25 16:29N 49°29' E 000°12'0 0.0
2015-Apr-25 15:32N 49°29' E 000°12'0 0.0
2015-Apr-25 14:32N 49°29' E 000°12'0 0.0
2015-Apr-25 13:32N 49°29' E 000°12'0 0.0
2015-Apr-25 12:29N 49°29' E 000°12'0 0.0
2015-Apr-25 11:32N 49°29' E 000°12'0 0.0
2015-Apr-25 10:29N 49°29' E 000°12'0 0.0
2015-Apr-25 09:32N 49°29' E 000°12'0 0.0
2015-Apr-25 08:32N 49°29' E 000°12'0 0.0
2015-Apr-25 07:32N 49°29' E 000°12'0 0.0
2015-Apr-25 06:32N 49°29' E 000°12'0 0.0
2015-Apr-25 05:32N 49°29' E 000°12'0 0.0
2015-Apr-25 04:32N 49°29' E 000°12'0 0.0
2015-Apr-25 03:32N 49°29' E 000°12'0 0.0
2015-Apr-25 02:32N 49°29' E 000°12'0 0.0
2015-Apr-25 01:33N 49°29' E 000°12'1 1.3
2015-Apr-25 00:34N 49°29' E 000°10'8 7.8
2015-Apr-24 23:34N 49°30' W 000°01'6 5.5
2015-Apr-24 22:32N 49°33' W 000°09'0 0.1
2015-Apr-24 21:32N 49°33' W 000°09'0 0.0
2015-Apr-24 20:32N 49°33' W 000°09'0 0.0
2015-Apr-24 19:32N 49°33' W 000°09'0 0.0
2015-Apr-24 18:32N 49°33' W 000°09'0 0.0
2015-Apr-24 17:32N 49°33' W 000°09'0 0.0
2015-Apr-24 16:32N 49°33' W 000°09'0 0.1
2015-Apr-24 15:32N 49°33' W 000°09'0 0.0
2015-Apr-24 14:32N 49°33' W 000°09'0 0.0
2015-Apr-24 13:32N 49°33' W 000°09'0 0.0
2015-Apr-24 12:32N 49°33' W 000°09'0 0.0
2015-Apr-24 11:32N 49°33' W 000°09'0 0.0
2015-Apr-24 10:32N 49°33' W 000°09'0 0.0
2015-Apr-24 09:32N 49°33' W 000°09'0 0.0
2015-Apr-24 08:32N 49°33' W 000°09'0 0.0
2015-Apr-24 07:32N 49°33' W 000°09'0 0.0
2015-Apr-24 06:32N 49°33' W 000°09'0 0.0
2015-Apr-24 05:32N 49°33' W 000°09'0 0.0
2015-Apr-24 04:20N 49°33' W 000°09'0 0.1
2015-Apr-24 03:32N 49°33' W 000°09'0 0.1
2015-Apr-24 02:26N 49°33' W 000°09'  

Dump ship's entire track history